Albin, WY (82050)

9:16 PM MDT on May 29, 2015 (GMT -0600)
Rd 225/Rd 156 | | Change Station
CLOSE
Current Station
Personal Weather Station
Location: Albin, WY
Elevation: 5453 ft
Nearby Weather Stations

Elev 5453 ft 41.36 °N, 104.21 °W | Updated 19 minutes ago

Mostly Cloudy
Mostly Cloudy
45.8 °F
Feels Like 43 °F
N
5.1
Wind Variable Wind from North
Gusts 8.5 mph

Today
High -- | Low -- °F
--% Chance of Precip.
Yesterday
High -- | Low -- °F
Precip. -- in
5:27 AM 8:22 PM
Waxing Gibbous, 87% visible
Pressure 30.33 in
Visibility 10.0 miles
Clouds Overcast 1700 ft
Windchill 43 °F
Dew Point 45 °F
Humidity 98%
Rainfall -999.00 in
Snow Depth Not available.
UV 0 out of 12
Pollen 4.10 out of 12
Air Quality Not available.
Flu Activity Sporadic
METAR K82V 300255Z AUTO 01007KT 10SM OVC017 08/06 A3033 RMK AO2

More Conditions Fewer Conditions

Pressure 30.33 in
Visibility 10.0 miles
Clouds Overcast 1700 ft
Windchill 43 °F
Dew Point 45 °F
Humidity 98%
Rainfall -999.00 in
Snow Depth Not available.
UV 0 out of 12
Pollen 4.10 out of 12
Air Quality Not available.
Flu Activity Sporadic
METAR K82V 300255Z AUTO 01007KT 10SM OVC017 08/06 A3033 RMK AO2

More Conditions Fewer Conditions

10-Day Weather Forecast

Almanac

Astronomy

May. 29, 2015 Rise Set
Actual Time
Civil Twilight
Nautical Twilight
Astronomical Twilight
Moon
Length of Visible Light
Length of Day
Tomorrow will be .
, % of the Moon is Illuminated

Today's Extremes

State Highs State Lows

Community

WunderPhotos

Upload Photos

1,825,438 photos uploaded!

WunderBlogs® & News

Nearby

Air Quality

  Air Quality AQ Index Pollutant
Not available.

Snow Depth

Station Depth Elevation

Earthquake Activity

City Distance Mag. Time & Date
Minimum magnitude displayed is 2.5.

Coastal Water Temperatures

Place Temperature

Stations

Nearby Weather Stations

Station Location Temp. Windchill Dew Point Humidity Wind Precip. Elev Updated Type